Time;durP1;ratioP1;P1;durP2;ratioP2;P2;SDS_P1;SDS_P2;PMS_P1;PMS_P2;Temp;Humidity;BMP_temperature;BMP_pressure;BME280_temperature;BME280_humidity;BME280_pressure;Samples;Min_cycle;Max_cycle;Signal;HPM_P1;HPM_P2
2023/04/03 00:02:17;;;;;;;16.60;11.40;;;;;;;6.17;100.00;99046.84;106637;1286;22521;-68
2023/04/03 00:04:46;;;;;;;13.10;9.00;;;;;;;6.16;100.00;99049.23;106955;1286;25363;-69
2023/04/03 00:07:16;;;;;;;14.40;10.40;;;;;;;6.18;100.00;99048.16;106624;1286;22729;-68
2023/04/03 00:09:45;;;;;;;14.70;10.30;;;;;;;6.16;100.00;99043.98;106771;1283;24081;-69
2023/04/03 00:12:13;;;;;;;13.80;10.90;;;;;;;6.17;100.00;99042.85;106750;1283;25324;-68
2023/04/03 00:14:42;;;;;;;13.80;10.30;;;;;;;6.18;100.00;99041.77;106818;1283;22980;-69
2023/04/03 00:17:15;;;;;;;14.70;11.70;;;;;;;6.18;100.00;99043.93;106794;1259;22527;-68
2023/04/03 00:19:44;;;;;;;13.70;10.60;;;;;;;6.17;100.00;99042.48;106854;1282;23320;-68
2023/04/03 00:22:12;;;;;;;14.10;10.50;;;;;;;6.19;100.00;99044.87;106756;1282;25234;-69
2023/04/03 00:24:47;;;;;;;15.30;10.00;;;;;;;6.18;100.00;99046.09;106774;1282;25306;-69
2023/04/03 00:27:19;;;;;;;14.70;10.20;;;;;;;6.15;100.00;99042.89;106867;1282;25485;-69
2023/04/03 00:29:49;;;;;;;12.80;10.10;;;;;;;6.13;100.00;99041.30;106824;1282;24209;-70
2023/04/03 00:32:18;;;;;;;15.30;11.00;;;;;;;6.13;100.00;99044.61;106819;1282;22633;-69
2023/04/03 00:34:47;;;;;;;13.50;11.10;;;;;;;6.09;100.00;99043.66;106804;1282;24364;-69
2023/04/03 00:37:15;;;;;;;14.00;10.80;;;;;;;6.10;100.00;99043.17;106710;1282;25424;-69
2023/04/03 00:39:43;;;;;;;13.40;10.30;;;;;;;6.10;100.00;99043.83;106788;1283;25346;-70
2023/04/03 00:42:14;;;;;;;12.40;9.60;;;;;;;6.07;100.00;99046.71;106856;1282;25404;-69
2023/04/03 00:44:42;;;;;;;13.50;9.20;;;;;;;6.08;100.00;99045.77;106914;1283;26062;-70
2023/04/03 00:47:11;;;;;;;12.00;9.20;;;;;;;6.08;100.00;99042.20;106738;1282;25489;-69
2023/04/03 00:49:41;;;;;;;12.90;9.20;;;;;;;6.05;100.00;99045.19;106736;1283;25340;-70
2023/04/03 00:52:12;;;;;;;11.50;8.50;;;;;;;6.03;100.00;99045.18;106772;1283;22516;-69
2023/04/03 00:54:41;;;;;;;11.50;9.30;;;;;;;6.04;100.00;99045.63;107167;1253;24372;-69
2023/04/03 00:57:10;;;;;;;11.00;8.30;;;;;;;6.02;100.00;99041.55;107342;1275;23347;-69
2023/04/03 00:59:42;;;;;;;11.30;9.10;;;;;;;6.01;100.00;99046.52;107172;1275;25389;-69
2023/04/03 01:02:10;;;;;;;12.00;8.50;;;;;;;6.04;100.00;99037.34;107104;1275;23318;-69
2023/04/03 01:04:41;;;;;;;11.50;8.30;;;;;;;6.07;100.00;99038.83;107252;1275;25386;-69
2023/04/03 01:07:12;;;;;;;9.90;7.80;;;;;;;6.06;100.00;99036.98;107427;1275;22530;-69
2023/04/03 01:09:41;;;;;;;9.70;7.70;;;;;;;6.06;100.00;99037.96;107163;1275;23178;-69
2023/04/03 01:12:21;;;;;;;11.80;7.70;;;;;;;6.09;100.00;99040.09;107149;1275;23324;-69
2023/04/03 01:14:57;;;;;;;10.50;7.80;;;;;;;6.10;100.00;99041.82;107357;1275;22510;-69
2023/04/03 01:17:37;;;;;;;9.90;6.80;;;;;;;6.09;100.00;99041.44;107474;1275;25348;-69
2023/04/03 01:20:28;;;;;;;8.40;6.80;;;;;;;6.13;100.00;99043.69;107345;1275;25470;-69
2023/04/03 01:23:08;;;;;;;8.80;6.50;;;;;;;6.10;100.00;99040.95;107352;1275;25532;-68
2023/04/03 01:25:39;;;;;;;9.30;6.10;;;;;;;6.11;100.00;99042.65;107283;1275;23354;-70
2023/04/03 01:28:09;;;;;;;7.60;5.80;;;;;;;6.08;100.00;99041.92;108616;1275;23854;-69
2023/04/03 01:31:00;;;;;;;8.60;5.50;;;;;;;6.05;100.00;99039.42;109533;1275;25224;-70
2023/04/03 01:33:29;;;;;;;10.60;6.00;;;;;;;6.09;100.00;99044.85;109920;1275;22545;-70
2023/04/03 01:35:57;;;;;;;9.70;6.00;;;;;;;6.10;100.00;99042.15;108357;1275;25391;-70
2023/04/03 01:38:26;;;;;;;8.80;6.10;;;;;;;6.09;100.00;99045.50;107374;1275;24358;-70
2023/04/03 01:40:54;;;;;;;8.80;6.20;;;;;;;6.10;100.00;99046.21;107379;1275;22558;-70
2023/04/03 01:43:22;;;;;;;7.60;5.50;;;;;;;6.10;100.00;99044.90;107341;1275;22577;-69
2023/04/03 01:45:54;;;;;;;9.40;6.10;;;;;;;6.10;100.00;99045.72;109722;1275;25446;-70
2023/04/03 01:48:22;;;;;;;8.20;6.20;;;;;;;6.13;100.00;99050.34;107372;1275;22522;-70
2023/04/03 01:50:51;;;;;;;8.90;5.90;;;;;;;6.11;100.00;99047.95;107295;1275;26459;-69
2023/04/03 01:53:19;;;;;;;8.30;5.70;;;;;;;6.10;100.00;99047.06;107610;1275;25317;-70
2023/04/03 01:55:48;;;;;;;8.80;5.60;;;;;;;6.12;100.00;99046.44;107303;1275;25434;-69
2023/04/03 01:58:17;;;;;;;8.20;5.60;;;;;;;6.11;100.00;99045.67;110375;1275;22922;-70
2023/04/03 02:00:48;;;;;;;8.80;5.80;;;;;;;6.11;100.00;99044.59;107928;1275;23376;-69
2023/04/03 02:03:17;;;;;;;8.30;6.30;;;;;;;6.13;100.00;99047.14;107084;1275;25476;-69
2023/04/03 02:05:45;;;;;;;7.70;5.90;;;;;;;6.12;100.00;99045.46;106987;1275;24201;-70
2023/04/03 02:08:14;;;;;;;8.20;5.50;;;;;;;6.13;100.00;99042.71;107106;1275;25309;-69
2023/04/03 02:10:42;;;;;;;9.20;5.90;;;;;;;6.14;100.00;99046.77;107331;1275;22562;-69
2023/04/03 02:13:10;;;;;;;10.00;6.10;;;;;;;6.15;100.00;99046.57;107260;1275;22542;-69
2023/04/03 02:15:39;;;;;;;8.90;6.40;;;;;;;6.15;100.00;99052.95;107156;1275;25370;-69
2023/04/03 02:18:08;;;;;;;7.90;5.70;;;;;;;6.17;100.00;99048.80;107196;1275;24371;-69
2023/04/03 02:20:38;;;;;;;7.70;6.20;;;;;;;6.21;100.00;99051.31;107384;1275;22514;-69
2023/04/03 02:23:07;;;;;;;7.00;5.50;;;;;;;6.18;100.00;99053.07;107441;1275;22533;-70
2023/04/03 02:25:35;;;;;;;9.40;5.80;;;;;;;6.19;100.00;99053.35;107386;1275;25470;-70
2023/04/03 02:28:09;;;;;;;7.70;5.80;;;;;;;6.19;100.00;99054.23;107293;1275;22756;-68
2023/04/03 02:30:38;;;;;;;8.90;5.90;;;;;;;6.18;100.00;99056.53;107095;1275;22677;-69
2023/04/03 02:33:10;;;;;;;8.30;6.10;;;;;;;6.17;100.00;99055.60;107133;1275;25345;-69
2023/04/03 02:35:40;;;;;;;8.60;5.70;;;;;;;6.15;100.00;99052.19;107410;1275;25319;-69
2023/04/03 02:38:08;;;;;;;8.40;5.80;;;;;;;6.15;100.00;99053.31;107428;1275;25265;-69
2023/04/03 02:40:37;;;;;;;7.90;5.70;;;;;;;6.12;100.00;99056.38;107163;1275;24186;-69
2023/04/03 02:43:06;;;;;;;8.30;6.00;;;;;;;6.11;100.00;99060.21;107669;1275;22598;-69
2023/04/03 02:45:35;;;;;;;7.40;5.70;;;;;;;6.12;100.00;99057.24;107490;1275;25322;-69
2023/04/03 02:48:04;;;;;;;10.00;6.10;;;;;;;6.07;100.00;99058.40;107326;1275;22964;-69
2023/04/03 02:50:33;;;;;;;8.90;6.50;;;;;;;6.10;100.00;99058.85;107455;1275;22518;-70
2023/04/03 02:53:02;;;;;;;9.30;6.30;;;;;;;6.12;100.00;99060.66;107427;1275;22680;-70
2023/04/03 02:55:30;;;;;;;9.90;6.40;;;;;;;6.11;100.00;99056.10;107399;1275;22517;-69
2023/04/03 02:57:58;;;;;;;8.00;6.30;;;;;;;6.11;100.00;99057.66;107216;1275;23126;-69
2023/04/03 03:00:27;;;;;;;8.20;6.00;;;;;;;6.13;100.00;99060.86;107525;1275;26470;-69
2023/04/03 03:02:56;;;;;;;10.20;6.50;;;;;;;6.13;100.00;99063.04;107335;1275;25321;-69
2023/04/03 03:05:24;;;;;;;9.90;6.70;;;;;;;6.10;100.00;99064.85;107149;1275;25367;-69
2023/04/03 03:07:52;;;;;;;7.60;6.20;;;;;;;6.10;100.00;99065.71;107101;1275;22521;-69
2023/04/03 03:10:21;;;;;;;7.80;6.20;;;;;;;6.14;100.00;99064.40;107694;1275;25194;-70
2023/04/03 03:12:49;;;;;;;7.80;6.00;;;;;;;6.15;100.00;99070.62;110419;1275;23052;-70
2023/04/03 03:15:19;;;;;;;7.10;5.80;;;;;;;6.17;100.00;99067.67;110542;1275;22919;-69
2023/04/03 03:17:48;;;;;;;9.80;6.50;;;;;;;6.20;100.00;99065.30;109432;1275;22589;-70
2023/04/03 03:20:24;;;;;;;8.80;6.50;;;;;;;6.24;100.00;99063.77;107173;1275;25349;-70
2023/04/03 03:22:53;;;;;;;9.80;6.20;;;;;;;6.17;100.00;99062.85;107279;1275;23476;-69
2023/04/03 03:25:23;;;;;;;9.30;6.50;;;;;;;6.17;100.00;99064.63;107301;1275;22613;-69
2023/04/03 03:27:52;;;;;;;9.30;6.30;;;;;;;6.18;100.00;99062.90;107471;1275;26497;-69
2023/04/03 03:30:21;;;;;;;11.10;7.10;;;;;;;6.16;100.00;99065.07;107351;1275;25367;-69
2023/04/03 03:32:50;;;;;;;9.70;6.70;;;;;;;6.17;100.00;99065.55;107382;1275;25319;-69
2023/04/03 03:35:18;;;;;;;10.60;7.20;;;;;;;6.17;100.00;99068.36;107340;1275;22513;-70
2023/04/03 03:37:49;;;;;;;9.60;6.60;;;;;;;6.14;100.00;99069.47;107395;1275;22645;-69
2023/04/03 03:40:18;;;;;;;8.50;6.70;;;;;;;6.14;100.00;99066.83;107438;1275;25328;-69
2023/04/03 03:42:46;;;;;;;10.00;7.10;;;;;;;6.15;100.00;99071.64;107192;1275;22514;-69
2023/04/03 03:45:15;;;;;;;10.00;6.90;;;;;;;6.14;100.00;99069.90;107267;1275;22529;-70
2023/04/03 03:47:43;;;;;;;8.90;6.80;;;;;;;6.16;100.00;99075.81;107523;1275;24357;-69
2023/04/03 03:50:12;;;;;;;8.60;6.60;;;;;;;6.21;100.00;99077.69;107419;1275;22504;-69
2023/04/03 03:52:40;;;;;;;10.50;6.90;;;;;;;6.21;100.00;99077.73;107245;1275;22639;-69
2023/04/03 03:55:09;;;;;;;9.40;6.90;;;;;;;6.17;100.00;99076.69;107526;1275;25213;-70
2023/04/03 03:57:40;;;;;;;10.30;6.80;;;;;;;6.13;100.00;99076.54;107378;1275;25377;-70
2023/04/03 04:00:09;;;;;;;9.50;7.00;;;;;;;6.14;100.00;99078.83;107499;1275;25262;-69
2023/04/03 04:02:47;;;;;;;9.00;7.00;;;;;;;6.14;100.00;99078.88;107383;1275;22509;-69
2023/04/03 04:05:18;;;;;;;9.10;6.70;;;;;;;6.13;100.00;99080.07;107486;1275;25334;-69
2023/04/03 04:07:46;;;;;;;10.40;7.50;;;;;;;6.16;100.00;99081.88;107271;1275;22738;-69
2023/04/03 04:10:15;;;;;;;11.10;7.20;;;;;;;6.19;100.00;99087.67;107338;1275;26471;-69
2023/04/03 04:12:44;;;;;;;10.50;7.00;;;;;;;6.20;100.00;99091.30;107214;1275;25347;-69
2023/04/03 04:15:14;;;;;;;9.90;6.90;;;;;;;6.23;100.00;99093.00;107659;1275;25558;-69
2023/04/03 04:17:42;;;;;;;11.60;7.20;;;;;;;6.25;100.00;99093.35;107428;1275;25325;-69
2023/04/03 04:20:12;;;;;;;10.30;7.20;;;;;;;6.25;100.00;99096.20;107353;1275;25315;-70
2023/04/03 04:22:42;;;;;;;9.70;6.70;;;;;;;6.22;100.00;99095.64;107148;1275;25303;-69
2023/04/03 04:25:10;;;;;;;9.40;7.20;;;;;;;6.24;100.00;99098.04;110371;1275;22624;-70
2023/04/03 04:27:39;;;;;;;10.30;7.80;;;;;;;6.24;100.00;99098.19;107959;1275;25350;-69
2023/04/03 04:30:08;;;;;;;8.80;6.80;;;;;;;6.26;100.00;99097.34;107267;1275;22643;-69
2023/04/03 04:32:37;;;;;;;9.90;7.10;;;;;;;6.30;100.00;99094.45;107584;1275;25420;-69
2023/04/03 04:35:06;;;;;;;9.00;7.00;;;;;;;6.29;100.00;99094.63;107383;1275;25312;-70
2023/04/03 04:37:36;;;;;;;8.30;7.00;;;;;;;6.29;100.00;99095.16;109455;1275;25322;-70
2023/04/03 04:40:05;;;;;;;9.30;7.30;;;;;;;6.32;100.00;99097.72;110370;1275;23103;-70
2023/04/03 04:42:34;;;;;;;10.10;7.20;;;;;;;6.37;100.00;99097.86;110409;1275;22998;-71
2023/04/03 04:45:07;;;;;;;11.40;7.70;;;;;;;6.41;100.00;99096.77;108902;1275;22534;-70
2023/04/03 04:47:36;;;;;;;9.50;6.60;;;;;;;6.45;100.00;99098.19;107440;1275;22683;-69
2023/04/03 04:50:06;;;;;;;10.10;7.10;;;;;;;6.47;100.00;99097.61;107390;1274;24400;-69
2023/04/03 04:52:35;;;;;;;13.00;7.60;;;;;;;6.50;100.00;99099.14;107356;1275;24364;-71
2023/04/03 04:55:05;;;;;;;12.80;7.40;;;;;;;6.49;100.00;99102.80;107288;1275;25340;-69
2023/04/03 04:57:35;;;;;;;10.00;7.00;;;;;;;6.49;100.00;99100.33;107234;1275;23413;-71
2023/04/03 05:00:05;;;;;;;9.60;7.40;;;;;;;6.51;100.00;99100.66;107374;1275;22520;-69
2023/04/03 05:02:40;;;;;;;9.60;7.30;;;;;;;6.51;100.00;99099.70;107240;1275;25353;-69
2023/04/03 05:05:09;;;;;;;10.20;7.60;;;;;;;6.49;100.00;99105.23;107184;1275;26471;-69
2023/04/03 05:07:38;;;;;;;9.50;7.60;;;;;;;6.52;100.00;99107.16;107579;1275;25331;-70
2023/04/03 05:10:08;;;;;;;11.00;7.50;;;;;;;6.56;100.00;99111.23;107440;1275;25343;-68
2023/04/03 05:12:36;;;;;;;9.10;7.00;;;;;;;6.54;100.00;99108.70;107310;1275;25269;-69
2023/04/03 05:15:06;;;;;;;9.70;7.50;;;;;;;6.58;100.00;99109.94;107239;1275;25321;-69
2023/04/03 05:17:34;;;;;;;9.00;6.80;;;;;;;6.59;100.00;99108.87;107136;1275;22517;-69
2023/04/03 05:20:04;;;;;;;10.00;7.50;;;;;;;6.58;100.00;99106.48;107420;1275;26009;-69
2023/04/03 05:22:35;;;;;;;12.30;7.60;;;;;;;6.56;100.00;99112.16;107432;1275;25344;-69
2023/04/03 05:25:07;;;;;;;8.20;6.90;;;;;;;6.61;100.00;99114.46;107430;1275;25926;-70
2023/04/03 05:27:36;;;;;;;10.50;8.00;;;;;;;6.64;100.00;99113.07;107352;1275;24174;-70
2023/04/03 05:30:05;;;;;;;9.50;7.40;;;;;;;6.62;100.00;99116.91;107336;1275;24396;-69
2023/04/03 05:32:34;;;;;;;10.40;7.10;;;;;;;6.67;100.00;99119.80;107202;1275;22566;-70
2023/04/03 05:35:25;;;;;;;9.60;7.00;;;;;;;6.72;100.00;99121.23;107328;1275;23003;-69
2023/04/03 05:37:55;;;;;;;9.80;6.90;;;;;;;6.73;100.00;99121.25;107303;1275;25319;-70
2023/04/03 05:40:24;;;;;;;10.50;7.40;;;;;;;6.74;100.00;99125.03;107291;1275;25323;-70
2023/04/03 05:42:53;;;;;;;8.70;7.10;;;;;;;6.76;100.00;99124.67;107379;1275;22517;-70
2023/04/03 05:45:23;;;;;;;10.10;7.40;;;;;;;6.83;100.00;99129.30;109581;1275;25325;-70
2023/04/03 05:47:52;;;;;;;9.70;6.60;;;;;;;6.86;100.00;99130.95;107180;1275;24180;-69
2023/04/03 05:50:20;;;;;;;8.80;7.10;;;;;;;6.94;100.00;99131.42;107168;1275;22513;-69
2023/04/03 05:52:51;;;;;;;10.00;7.30;;;;;;;7.02;100.00;99134.88;107787;1275;22596;-69
2023/04/03 05:55:19;;;;;;;8.50;7.00;;;;;;;7.05;100.00;99137.60;107429;1275;23126;-69
2023/04/03 05:57:48;;;;;;;9.20;6.80;;;;;;;7.08;100.00;99137.83;107274;1275;22509;-69
2023/04/03 06:00:16;;;;;;;10.10;6.70;;;;;;;7.15;100.00;99145.34;107252;1275;25331;-69
2023/04/03 06:02:50;;;;;;;8.90;6.90;;;;;;;7.18;100.00;99146.55;108728;1275;24342;-69
2023/04/03 06:05:22;;;;;;;8.80;6.80;;;;;;;7.17;100.00;99148.65;107157;1275;23288;-69
2023/04/03 06:07:50;;;;;;;9.20;7.70;;;;;;;7.16;100.00;99151.98;107319;1275;24256;-69
2023/04/03 06:10:19;;;;;;;8.30;6.40;;;;;;;7.09;100.00;99149.02;107239;1275;26660;-69
2023/04/03 06:12:48;;;;;;;10.40;7.50;;;;;;;7.06;100.00;99154.48;107136;1275;22537;-69
2023/04/03 06:15:17;;;;;;;9.80;7.00;;;;;;;7.07;100.00;99155.15;107311;1275;24306;-69
2023/04/03 06:17:48;;;;;;;9.60;7.10;;;;;;;7.08;100.00;99156.61;107303;1275;25349;-69
2023/04/03 06:20:17;;;;;;;8.70;6.20;;;;;;;7.07;100.00;99156.23;107346;1275;25319;-70
2023/04/03 06:22:45;;;;;;;9.30;6.20;;;;;;;7.10;100.00;99159.81;107353;1274;25471;-70
2023/04/03 06:25:14;;;;;;;11.10;6.90;;;;;;;7.16;100.00;99159.36;107302;1274;24182;-69
2023/04/03 06:27:42;;;;;;;9.40;7.10;;;;;;;7.20;100.00;99163.23;107453;1274;23360;-70
2023/04/03 06:30:11;;;;;;;10.60;6.80;;;;;;;7.19;100.00;99163.11;107393;1274;23323;-69
2023/04/03 06:32:40;;;;;;;8.30;6.90;;;;;;;7.16;100.00;99161.47;107321;1274;25437;-69
2023/04/03 06:35:09;;;;;;;8.20;6.30;;;;;;;7.14;100.00;99168.44;107414;1274;22913;-69
2023/04/03 06:37:38;;;;;;;9.30;7.40;;;;;;;7.16;100.00;99164.66;107359;1274;26503;-69
2023/04/03 06:40:07;;;;;;;8.90;7.20;;;;;;;7.18;100.00;99170.15;107374;1274;23113;-69
2023/04/03 06:42:37;;;;;;;9.10;6.90;;;;;;;7.24;100.00;99172.34;107597;1274;25258;-68
2023/04/03 06:45:11;;;;;;;9.90;7.30;;;;;;;7.31;100.00;99172.11;107444;1274;25343;-70
2023/04/03 06:47:42;;;;;;;10.30;7.20;;;;;;;7.34;100.00;99176.77;107427;1274;25382;-70
2023/04/03 06:50:13;;;;;;;8.80;6.90;;;;;;;7.35;100.00;99176.56;107371;1274;25340;-70
2023/04/03 06:52:42;;;;;;;8.20;6.80;;;;;;;7.32;100.00;99179.91;107380;1274;22536;-71
2023/04/03 06:55:11;;;;;;;10.20;6.90;;;;;;;7.34;100.00;99179.48;107385;1274;25334;-71
2023/04/03 06:57:41;;;;;;;9.30;6.80;;;;;;;7.35;100.00;99180.08;107420;1274;25397;-70
2023/04/03 07:00:11;;;;;;;8.40;6.30;;;;;;;7.35;100.00;99184.25;107543;1274;22528;-70
2023/04/03 07:02:53;;;;;;;8.90;6.50;;;;;;;7.42;100.00;99184.23;107423;1274;23893;-69
2023/04/03 07:05:22;;;;;;;8.60;6.30;;;;;;;7.41;100.00;99191.20;107141;1274;25348;-70
2023/04/03 07:07:51;;;;;;;10.20;6.30;;;;;;;7.46;100.00;99191.65;107381;1274;26460;-70
2023/04/03 07:10:19;;;;;;;10.70;6.60;;;;;;;7.51;100.00;99194.71;107441;1274;25491;-70
2023/04/03 07:12:48;;;;;;;9.20;7.00;;;;;;;7.54;100.00;99195.53;110508;1274;22321;-71
2023/04/03 07:15:16;;;;;;;9.60;6.50;;;;;;;7.57;100.00;99196.08;110540;1274;22189;-71
2023/04/03 07:17:45;;;;;;;7.00;5.80;;;;;;;7.62;100.00;99196.21;107564;1274;24826;-69
2023/04/03 07:20:15;;;;;;;8.30;6.70;;;;;;;7.58;100.00;99199.94;107360;1274;23899;-70
2023/04/03 07:22:43;;;;;;;11.00;6.50;;;;;;;7.61;100.00;99200.98;108724;1274;22204;-71
2023/04/03 07:25:12;;;;;;;8.80;6.60;;;;;;;7.68;100.00;99201.27;108493;1274;25395;-70
2023/04/03 07:27:41;;;;;;;8.10;6.30;;;;;;;7.71;100.00;99201.83;107364;1274;22534;-69
2023/04/03 07:30:09;;;;;;;8.60;6.50;;;;;;;7.72;100.00;99203.95;107359;1274;22682;-69
2023/04/03 07:32:38;;;;;;;8.50;6.40;;;;;;;7.67;100.00;99202.95;107479;1274;23431;-69
2023/04/03 07:35:07;;;;;;;8.00;6.50;;;;;;;7.71;100.00;99201.39;107382;1274;22736;-70
2023/04/03 07:37:36;;;;;;;8.20;6.70;;;;;;;7.74;100.00;99201.80;107614;1274;25335;-70
2023/04/03 07:40:06;;;;;;;8.20;6.30;;;;;;;7.71;100.00;99204.86;107469;1274;25350;-70
2023/04/03 07:42:36;;;;;;;8.40;6.30;;;;;;;7.79;100.00;99200.19;107633;1274;22516;-70
2023/04/03 07:45:05;;;;;;;8.10;6.10;;;;;;;7.79;100.00;99203.55;107426;1274;23861;-69
2023/04/03 07:47:34;;;;;;;8.80;6.30;;;;;;;7.84;100.00;99205.73;107485;1274;25493;-69
2023/04/03 07:50:03;;;;;;;7.20;5.70;;;;;;;7.91;100.00;99210.14;107518;1274;26656;-70
2023/04/03 07:52:37;;;;;;;8.90;6.30;;;;;;;7.90;100.00;99206.78;107343;1274;25322;-70
2023/04/03 07:55:06;;;;;;;7.20;6.10;;;;;;;7.91;100.00;99207.11;107293;1274;22525;-70
2023/04/03 07:57:36;;;;;;;9.40;6.60;;;;;;;7.91;100.00;99209.42;107377;1274;25330;-71
2023/04/03 08:00:06;;;;;;;7.60;6.20;;;;;;;7.84;100.00;99207.90;107367;1274;25395;-70
2023/04/03 08:02:39;;;;;;;7.40;5.90;;;;;;;7.90;100.00;99213.12;107471;1274;25347;-70
2023/04/03 08:05:08;;;;;;;7.90;6.10;;;;;;;8.00;100.00;99218.67;107513;1274;25328;-69
2023/04/03 08:07:37;;;;;;;8.90;6.10;;;;;;;8.04;100.00;99218.30;107406;1274;22552;-70
2023/04/03 08:10:06;;;;;;;7.40;5.50;;;;;;;8.09;100.00;99220.00;107411;1274;25395;-70
2023/04/03 08:12:36;;;;;;;10.00;6.60;;;;;;;8.12;100.00;99217.13;107389;1274;25306;-69
2023/04/03 08:15:06;;;;;;;8.00;6.20;;;;;;;8.16;100.00;99218.70;107438;1274;25209;-70
2023/04/03 08:17:36;;;;;;;8.90;6.40;;;;;;;8.19;100.00;99218.80;107384;1274;26257;-70
2023/04/03 08:20:06;;;;;;;8.10;6.80;;;;;;;8.14;100.00;99225.37;107401;1274;22540;-69
2023/04/03 08:22:34;;;;;;;7.80;6.10;;;;;;;8.13;100.00;99227.64;107428;1274;25312;-69
2023/04/03 08:25:03;;;;;;;9.80;6.80;;;;;;;8.15;100.00;99229.55;107358;1274;25396;-70
2023/04/03 08:27:32;;;;;;;10.70;6.60;;;;;;;8.18;100.00;99228.48;107442;1274;25322;-69
2023/04/03 08:30:03;;;;;;;8.40;6.40;;;;;;;8.22;100.00;99229.61;107393;1274;25312;-70
2023/04/03 08:32:34;;;;;;;7.30;6.00;;;;;;;8.23;100.00;99234.23;110519;1274;22939;-71
2023/04/03 08:35:05;;;;;;;9.80;7.00;;;;;;;8.21;100.00;99235.38;110547;1274;23087;-71
2023/04/03 08:37:36;;;;;;;8.50;6.70;;;;;;;8.19;100.00;99237.20;110572;1274;22331;-71
2023/04/03 08:40:05;;;;;;;10.20;6.80;;;;;;;8.19;100.00;99232.65;110557;1274;22550;-72
2023/04/03 08:42:43;;;;;;;9.60;6.90;;;;;;;8.17;100.00;99238.11;110534;1274;22273;-71
2023/04/03 08:45:14;;;;;;;;;;;;;;;8.23;100.00;99237.80;107690;1274;25370;-70
2023/04/03 08:47:47;;;;;;;7.70;6.60;;;;;;;8.22;100.00;99242.04;107430;1274;22541;-70
2023/04/03 08:50:17;;;;;;;8.90;6.70;;;;;;;8.18;100.00;99242.67;107502;1274;22621;-70
2023/04/03 08:52:50;;;;;;;10.00;6.50;;;;;;;8.11;100.00;99239.67;107359;1274;25312;-70
2023/04/03 08:55:34;;;;;;;8.50;6.40;;;;;;;8.14;100.00;99242.17;107474;1274;22597;-70
2023/04/03 08:58:07;;;;;;;8.70;6.60;;;;;;;8.20;100.00;99245.08;107416;1274;23924;-71
2023/04/03 09:00:55;;;;;;;8.60;6.60;;;;;;;8.28;100.00;99245.42;107395;1274;24079;-70
2023/04/03 09:03:25;;;;;;;9.80;7.20;;;;;;;8.26;100.00;99242.80;107523;1274;22525;-69
2023/04/03 09:05:57;;;;;;;8.80;6.60;;;;;;;8.28;100.00;99244.55;107430;1274;25465;-69
2023/04/03 09:08:31;;;;;;;8.90;7.60;;;;;;;8.35;100.00;99247.45;107512;1274;23354;-68
2023/04/03 09:11:24;;;;;;;10.10;7.00;;;;;;;8.36;100.00;99250.23;107470;1274;25303;-70
2023/04/03 09:13:57;;;;;;;7.90;6.80;;;;;;;8.43;100.00;99252.95;107494;1274;24241;-69
2023/04/03 09:16:37;;;;;;;10.00;6.40;;;;;;;8.49;100.00;99254.31;107356;1274;25378;-69
2023/04/03 09:19:25;;;;;;;8.20;6.30;;;;;;;8.57;100.00;99255.30;107368;1274;27596;-70
2023/04/03 09:21:57;;;;;;;8.90;6.20;;;;;;;8.66;100.00;99259.75;107221;1274;25322;-70
2023/04/03 09:24:25;;;;;;;7.10;6.00;;;;;;;8.72;100.00;99257.20;107187;1274;22535;-70
2023/04/03 09:27:02;;;;;;;8.70;6.60;;;;;;;8.74;100.00;99260.67;107239;1274;25521;-70
2023/04/03 09:29:31;;;;;;;8.20;6.40;;;;;;;8.82;100.00;99258.13;107392;1274;22542;-69
2023/04/03 09:32:02;;;;;;;8.50;6.20;;;;;;;8.90;100.00;99260.40;107108;1274;25411;-69
2023/04/03 09:34:36;;;;;;;10.50;7.00;;;;;;;9.02;100.00;99257.35;107318;1274;23195;-69
2023/04/03 09:37:08;;;;;;;9.10;6.90;;;;;;;9.08;100.00;99259.63;107328;1274;25337;-69
2023/04/03 09:39:53;;;;;;;8.20;5.80;;;;;;;9.14;100.00;99259.63;107441;1274;25265;-70
2023/04/03 09:42:23;;;;;;;8.80;6.40;;;;;;;9.21;100.00;99264.61;107320;1274;25496;-69
2023/04/03 09:45:03;;;;;;;8.20;6.30;;;;;;;9.20;100.00;99262.88;107439;1274;22706;-70
2023/04/03 09:47:33;;;;;;;8.30;6.40;;;;;;;9.13;100.00;99259.30;107451;1274;22605;-69
2023/04/03 09:50:14;;;;;;;9.00;6.60;;;;;;;9.17;100.00;99256.46;107707;1274;22777;-69
2023/04/03 09:52:47;;;;;;;8.40;6.70;;;;;;;9.17;100.00;99251.41;107421;1251;22658;-69
2023/04/03 09:55:29;;;;;;;8.30;5.90;;;;;;;9.16;100.00;99252.13;110586;1274;22211;-70
2023/04/03 09:58:07;;;;;;;9.30;6.50;;;;;;;9.05;100.00;99250.45;110523;1274;22273;-70
2023/04/03 10:00:37;;;;;;;9.90;6.80;;;;;;;9.08;100.00;99251.70;110531;1258;22473;-71
2023/04/03 10:03:35;;;;;;;9.90;7.10;;;;;;;9.09;100.00;99250.94;110511;1274;22262;-70
2023/04/03 10:06:03;;;;;;;9.10;6.80;;;;;;;9.20;100.00;99252.66;108035;1274;23335;-69
2023/04/03 10:08:34;;;;;;;8.90;6.40;;;;;;;9.24;100.00;99254.77;107378;1274;25392;-69
2023/04/03 10:11:09;;;;;;;9.30;6.40;;;;;;;9.22;100.00;99253.36;107390;1274;25325;-69
2023/04/03 10:13:51;;;;;;;7.50;6.30;;;;;;;9.24;100.00;99257.27;107412;1274;25509;-70
2023/04/03 10:16:29;;;;;;;9.30;6.90;;;;;;;9.30;100.00;99257.38;107427;1274;22538;-69
2023/04/03 10:19:07;;;;;;;8.20;6.20;;;;;;;9.24;100.00;99256.85;107411;1274;23220;-69
2023/04/03 10:21:42;;;;;;;8.80;5.70;;;;;;;9.33;100.00;99256.98;107341;1274;23190;-69
2023/04/03 10:24:13;;;;;;;8.70;6.10;;;;;;;9.38;100.00;99260.08;107505;1274;22928;-69
2023/04/03 10:26:48;;;;;;;9.20;6.10;;;;;;;9.38;100.00;99258.66;107444;1274;24506;-69
2023/04/03 10:29:21;;;;;;;8.40;6.20;;;;;;;9.41;100.00;99258.66;107419;1274;23413;-69
2023/04/03 10:31:56;;;;;;;7.80;5.60;;;;;;;9.34;100.00;99263.71;107480;1274;22559;-69
2023/04/03 10:34:30;;;;;;;9.30;6.30;;;;;;;9.32;100.00;99260.95;107383;1274;24372;-69
2023/04/03 10:37:20;;;;;;;7.10;5.60;;;;;;;9.30;100.00;99259.27;107305;1274;22510;-69
2023/04/03 10:40:24;;;;;;;10.70;5.70;;;;;;;9.27;100.00;99262.37;107284;1274;23740;-69
2023/04/03 10:43:02;;;;;;;6.40;5.50;;;;;;;9.24;100.00;99259.48;107559;1274;24368;-69
2023/04/03 10:46:10;;;;;;;9.00;5.20;;;;;;;9.15;100.00;99258.38;107357;1274;22574;-69
2023/04/03 10:48:49;;;;;;;8.70;5.70;;;;;;;9.12;100.00;99260.59;107598;1274;24908;-69
2023/04/03 10:51:39;;;;;;;7.10;5.40;;;;;;;9.12;100.00;99261.52;107402;1251;23433;-69
2023/04/03 10:54:26;;;;;;;7.20;6.00;;;;;;;9.11;100.00;99260.11;107370;1274;22522;-70
2023/04/03 10:56:56;;;;;;;8.10;5.20;;;;;;;9.09;100.00;99261.15;107364;1274;22519;-69
2023/04/03 10:59:47;;;;;;;8.10;5.30;;;;;;;9.14;100.00;99262.02;107402;1274;22531;-69
2023/04/03 11:02:22;;;;;;;5.70;4.50;;;;;;;9.12;100.00;99262.78;107305;1274;26533;-68
2023/04/03 11:04:58;;;;;;;4.40;3.30;;;;;;;8.97;100.00;99273.75;107505;1274;24238;-69
2023/04/03 11:07:30;;;;;;;;;;;;;;;8.78;100.00;99273.98;107304;1274;25440;-69
2023/04/03 11:10:03;;;;;;;3.10;2.00;;;;;;;8.46;100.00;99277.41;107446;1274;23543;-69
2023/04/03 11:12:46;;;;;;;3.20;1.70;;;;;;;8.10;100.00;99273.46;107385;1274;22537;-69
2023/04/03 11:15:17;;;;;;;2.70;1.30;;;;;;;7.88;100.00;99276.67;110538;1274;23057;-70
2023/04/03 11:17:50;;;;;;;2.90;1.70;;;;;;;7.65;100.00;99281.84;110538;1274;22376;-69
2023/04/03 11:20:37;;;;;;;1.80;1.00;;;;;;;7.39;100.00;99286.15;110504;1274;22450;-69
2023/04/03 11:23:26;;;;;;;2.00;1.10;;;;;;;7.22;100.00;99290.79;110411;1274;22202;-69
2023/04/03 11:26:14;;;;;;;1.40;0.80;;;;;;;7.06;100.00;99296.48;109356;1274;22609;-69
2023/04/03 11:28:42;;;;;;;1.60;0.80;;;;;;;6.96;100.00;99300.23;110533;1274;22492;-70
2023/04/03 11:31:23;;;;;;;1.30;0.80;;;;;;;6.84;100.00;99303.65;108040;1274;22747;-69
2023/04/03 11:34:28;;;;;;;2.40;0.70;;;;;;;6.75;100.00;99311.05;107370;1274;25446;-68
2023/04/03 11:36:59;;;;;;;1.60;1.20;;;;;;;6.68;100.00;99311.09;107394;1274;25337;-68
2023/04/03 11:39:35;;;;;;;3.20;0.80;;;;;;;6.58;100.00;99316.14;107388;1274;25315;-69
2023/04/03 11:42:37;;;;;;;2.20;1.10;;;;;;;6.55;100.00;99321.56;107395;1274;25340;-68
2023/04/03 11:45:27;;;;;;;2.60;1.10;;;;;;;6.50;100.00;99316.75;107270;1274;22566;-68
2023/04/03 11:48:06;;;;;;;1.20;0.90;;;;;;;6.42;100.00;99322.89;107397;1274;25330;-69